La Paz, Bolivia
Current Conditions -  °F | °C
As of 7:00 PM on Friday 24 Oct 2014 (Local Time) from SLLP Reporting Station
Few Clouds Few Clouds  
Wind Chill: 55°   Ceiling: Unl
Heat Index: 55°   Visibility: 6mi
Dew Point: 34°   Wind: 13mph
Humidity: 44%   Direction: 110°ESE
Pressure: 30.53"   Gusts: NA
Location:  16.5°S, 68.15°W
Report Text: SLLP 242300Z 11011KT 9999 FEW015 FEW017CB 13/01 Q1034
Loading
Personal Weather Stations






























Interactive Weather Map
Tropical Storm Tracking
New forecast layout! Learn more

10-Day Weather Forecast

Advertisements
Track Severe Weather on mobile